createdAt,value
2019-05-20T00:00:00.227Z,12
2019-05-20T00:00:51.099Z,12
2019-05-20T00:01:41.973Z,12.1
2019-05-20T00:02:32.899Z,12.1
2019-05-20T00:03:23.766Z,12.1
2019-05-20T00:04:14.647Z,12.1
2019-05-20T00:05:05.522Z,12.1
2019-05-20T00:05:56.415Z,12.1
2019-05-20T00:06:47.302Z,12.1
2019-05-20T00:07:38.179Z,12.1
2019-05-20T00:08:29.082Z,12.1
2019-05-20T00:09:19.964Z,12.1
2019-05-20T00:10:10.831Z,12.1
2019-05-20T00:11:01.821Z,12.1
2019-05-20T00:11:53.755Z,12.1
2019-05-20T00:12:44.763Z,12.1
2019-05-20T00:13:35.672Z,12.1
2019-05-20T00:14:26.548Z,12.1
2019-05-20T00:15:17.412Z,12
2019-05-20T00:16:08.289Z,12
2019-05-20T00:16:59.163Z,12
2019-05-20T00:17:50.038Z,12
2019-05-20T00:18:40.939Z,12
2019-05-20T00:19:31.810Z,11.9
2019-05-20T00:20:22.698Z,12
2019-05-20T00:21:13.570Z,11.9
2019-05-20T00:22:04.450Z,11.9
2019-05-20T00:22:55.350Z,12
2019-05-20T00:23:46.245Z,11.9
2019-05-20T00:24:37.113Z,11.9
2019-05-20T00:25:27.981Z,12
2019-05-20T00:26:18.869Z,11.9
2019-05-20T00:27:09.757Z,11.9
2019-05-20T00:28:00.649Z,11.9
2019-05-20T00:28:51.542Z,12
2019-05-20T00:29:42.409Z,11.9
2019-05-20T00:30:33.278Z,11.9
2019-05-20T00:31:24.154Z,11.9
2019-05-20T00:32:15.020Z,11.9
2019-05-20T00:33:05.894Z,11.9
2019-05-20T00:33:56.796Z,11.9
2019-05-20T00:34:47.668Z,11.9
2019-05-20T00:35:38.539Z,11.8
2019-05-20T00:36:29.408Z,11.8
2019-05-20T00:37:20.285Z,11.8
2019-05-20T00:38:11.158Z,11.8
2019-05-20T00:39:02.054Z,11.7
2019-05-20T00:39:52.923Z,11.7
2019-05-20T00:40:43.799Z,11.7
2019-05-20T00:41:34.674Z,11.7
2019-05-20T00:42:25.547Z,11.8
2019-05-20T00:43:16.421Z,11.7
2019-05-20T00:44:07.318Z,11.8
2019-05-20T00:44:58.201Z,11.8
2019-05-20T00:45:49.073Z,11.7
2019-05-20T00:46:39.949Z,11.7
2019-05-20T00:47:30.820Z,11.7
2019-05-20T00:48:21.694Z,11.7
2019-05-20T00:49:12.597Z,11.7
2019-05-20T00:50:03.475Z,11.7
2019-05-20T00:50:54.342Z,11.7
2019-05-20T00:51:45.220Z,11.7
2019-05-20T00:52:36.090Z,11.7
2019-05-20T00:53:26.964Z,11.7
2019-05-20T00:54:17.906Z,11.7
2019-05-20T00:55:08.837Z,11.8
2019-05-20T00:55:59.706Z,11.8
2019-05-20T00:56:50.577Z,11.8
2019-05-20T00:57:41.526Z,11.7
2019-05-20T00:58:32.409Z,11.7
2019-05-20T00:59:23.310Z,11.7
2019-05-20T01:00:14.181Z,11.7
2019-05-20T01:01:05.049Z,11.7
2019-05-20T01:01:55.922Z,11.8
2019-05-20T01:02:56.281Z,11.8
2019-05-20T01:03:42.654Z,11.8
2019-05-20T01:04:33.531Z,11.8
2019-05-20T01:05:24.417Z,11.8
2019-05-20T01:06:15.299Z,11.8
2019-05-20T01:07:06.172Z,11.8
2019-05-20T01:07:57.049Z,11.8
2019-05-20T01:08:47.923Z,11.8
2019-05-20T01:09:38.826Z,11.8
2019-05-20T01:10:29.712Z,11.8
2019-05-20T01:11:20.581Z,11.8
2019-05-20T01:12:11.500Z,11.7
2019-05-20T01:13:02.393Z,11.7
2019-05-20T01:13:53.274Z,11.8
2019-05-20T01:14:44.178Z,11.8
2019-05-20T01:15:35.052Z,11.8
2019-05-20T01:16:25.919Z,11.8
2019-05-20T01:17:16.794Z,11.8
2019-05-20T01:18:07.669Z,11.8
2019-05-20T01:18:58.552Z,11.8
2019-05-20T01:19:49.462Z,11.9
2019-05-20T01:20:40.368Z,11.9
2019-05-20T01:21:31.252Z,11.8
2019-05-20T01:22:22.129Z,11.8
2019-05-20T01:23:13.012Z,11.8
2019-05-20T01:24:03.894Z,11.9
2019-05-20T01:24:54.798Z,11.9
2019-05-20T01:25:45.682Z,11.9
2019-05-20T01:26:36.563Z,11.9
2019-05-20T01:27:27.437Z,11.9
2019-05-20T01:28:18.317Z,11.9
2019-05-20T01:29:09.186Z,11.9
2019-05-20T01:30:00.104Z,11.9
2019-05-20T01:30:50.977Z,11.9
2019-05-20T01:31:41.854Z,11.9
2019-05-20T01:32:32.720Z,11.9
2019-05-20T01:33:23.594Z,11.9
2019-05-20T01:34:14.461Z,11.9
2019-05-20T01:35:05.362Z,11.9
2019-05-20T01:35:56.236Z,11.9
2019-05-20T01:36:47.108Z,11.9
2019-05-20T01:37:37.989Z,12
2019-05-20T01:38:28.876Z,12
2019-05-20T01:39:19.743Z,12
2019-05-20T01:40:10.650Z,12
2019-05-20T01:41:01.525Z,12
2019-05-20T01:41:52.402Z,12
2019-05-20T01:42:43.289Z,12
2019-05-20T01:43:34.164Z,12
2019-05-20T01:44:25.035Z,12
2019-05-20T01:45:15.936Z,12
2019-05-20T01:46:06.858Z,12
2019-05-20T01:46:57.762Z,12
2019-05-20T01:47:48.632Z,12
2019-05-20T01:48:39.515Z,12.1
2019-05-20T01:49:30.383Z,12.1
2019-05-20T01:50:21.292Z,12.1
2019-05-20T01:51:12.159Z,12.1
2019-05-20T01:52:03.027Z,12.1
2019-05-20T01:52:53.906Z,12.1
2019-05-20T01:53:44.783Z,12.1
2019-05-20T01:54:35.661Z,12.1
2019-05-20T01:55:26.563Z,12.1
2019-05-20T01:56:17.446Z,12.1
2019-05-20T01:57:08.316Z,12.1
2019-05-20T01:57:59.195Z,12
2019-05-20T01:58:50.065Z,12
2019-05-20T01:59:40.939Z,12
2019-05-20T02:00:31.842Z,12
2019-05-20T02:01:22.709Z,12
2019-05-20T02:02:13.579Z,12
2019-05-20T02:03:04.450Z,12.1
2019-05-20T02:03:55.330Z,12.1
2019-05-20T02:04:46.201Z,12.1
2019-05-20T02:05:37.123Z,12.1
2019-05-20T02:06:28.041Z,12.1
2019-05-20T02:07:18.926Z,12.1
2019-05-20T02:08:09.819Z,12.1
2019-05-20T02:09:00.697Z,12.1
2019-05-20T02:09:51.569Z,12
2019-05-20T02:10:42.444Z,12
2019-05-20T02:11:33.352Z,12
2019-05-20T02:12:24.224Z,12.1
2019-05-20T02:13:15.099Z,12.1
2019-05-20T02:14:05.981Z,12.1
2019-05-20T02:14:56.853Z,12.1
2019-05-20T02:15:47.781Z,12
2019-05-20T02:16:38.650Z,12
2019-05-20T02:17:29.524Z,12
2019-05-20T02:18:20.393Z,12
2019-05-20T02:19:11.271Z,12
2019-05-20T02:20:02.293Z,12
2019-05-20T02:20:53.261Z,12
2019-05-20T02:21:44.159Z,12.1
2019-05-20T02:22:35.032Z,12
2019-05-20T02:23:25.905Z,12
2019-05-20T02:24:16.789Z,12
2019-05-20T02:25:07.673Z,12
2019-05-20T02:25:58.574Z,12.1
2019-05-20T02:26:49.445Z,12.1
2019-05-20T02:27:40.314Z,12.1
2019-05-20T02:28:31.196Z,12.1
2019-05-20T02:29:22.087Z,12.1
2019-05-20T02:30:17.966Z,12.1
2019-05-20T02:31:08.883Z,12.1
2019-05-20T02:31:59.758Z,12.1
2019-05-20T02:32:50.635Z,12.1
2019-05-20T02:33:51.395Z,12.1
2019-05-20T02:34:37.309Z,12.1
2019-05-20T02:35:28.188Z,12.1
2019-05-20T02:36:19.112Z,12.1
2019-05-20T02:37:09.989Z,12.1
2019-05-20T02:38:00.860Z,12.1
2019-05-20T02:38:51.729Z,12.1
2019-05-20T02:39:42.613Z,12.2
2019-05-20T02:40:33.752Z,12.2
2019-05-20T02:41:25.651Z,12.2
2019-05-20T02:42:16.558Z,12.2
2019-05-20T02:43:07.455Z,12.2
2019-05-20T02:43:58.355Z,12.2
2019-05-20T02:44:49.224Z,12.2
2019-05-20T02:45:40.111Z,12.2
2019-05-20T02:46:31.030Z,12.2
2019-05-20T02:47:21.916Z,12.2
2019-05-20T02:48:12.808Z,12.2
2019-05-20T02:49:03.699Z,12.2
2019-05-20T02:49:54.571Z,12.2
2019-05-20T02:50:45.465Z,12.2
2019-05-20T02:51:36.371Z,12.3
2019-05-20T02:52:27.274Z,12.3
2019-05-20T02:53:18.157Z,12.3
2019-05-20T02:54:09.033Z,12.3
2019-05-20T02:54:59.913Z,12.3
2019-05-20T02:55:50.788Z,12.3
2019-05-20T02:56:41.683Z,12.4
2019-05-20T02:57:32.558Z,12.4
2019-05-20T02:58:23.679Z,12.4
2019-05-20T02:59:14.574Z,12.4
2019-05-20T03:00:05.449Z,12.4
2019-05-20T03:00:56.356Z,12.4
2019-05-20T03:01:47.267Z,12.4
2019-05-20T03:02:38.142Z,12.4
2019-05-20T03:03:29.028Z,12.4
2019-05-20T03:04:19.902Z,12.4
2019-05-20T03:05:10.787Z,12.4
2019-05-20T03:06:01.665Z,12.4
2019-05-20T03:06:52.571Z,12.4
2019-05-20T03:07:43.446Z,12.4
2019-05-20T03:08:34.328Z,12.4
2019-05-20T03:09:25.207Z,12.4
2019-05-20T03:10:16.080Z,12.4
2019-05-20T03:11:06.976Z,12.4
2019-05-20T03:11:57.886Z,12.4
2019-05-20T03:12:48.757Z,12.4
2019-05-20T03:13:39.631Z,12.4
2019-05-20T03:14:30.512Z,12.4
2019-05-20T03:15:21.391Z,12.4
2019-05-20T03:16:15.550Z,12.4
2019-05-20T03:17:06.713Z,12.4
2019-05-20T03:17:57.584Z,12.4
2019-05-20T03:18:48.465Z,12.4
2019-05-20T03:19:39.361Z,12.4
2019-05-20T03:20:30.232Z,12.5
2019-05-20T03:21:21.350Z,12.5
2019-05-20T03:22:12.219Z,12.5
2019-05-20T03:23:03.129Z,12.5
2019-05-20T03:23:54.016Z,12.5
2019-05-20T03:24:44.885Z,12.5
2019-05-20T03:25:35.763Z,12.5
2019-05-20T03:26:26.653Z,12.5
2019-05-20T03:27:17.587Z,12.5
2019-05-20T03:28:08.458Z,12.5
2019-05-20T03:28:59.332Z,12.5
2019-05-20T03:29:50.224Z,12.6
2019-05-20T03:30:41.100Z,12.6
2019-05-20T03:31:31.991Z,12.6
2019-05-20T03:32:22.883Z,12.6
2019-05-20T03:33:13.801Z,12.5
2019-05-20T03:34:04.706Z,12.5
2019-05-20T03:34:59.632Z,12.5
2019-05-20T03:35:51.462Z,12.6
2019-05-20T03:36:42.590Z,12.6
2019-05-20T03:37:33.517Z,12.6
2019-05-20T03:38:24.388Z,12.6
2019-05-20T03:39:15.274Z,12.6
2019-05-20T03:40:06.157Z,12.6
2019-05-20T03:40:57.042Z,12.6
2019-05-20T03:41:47.924Z,12.6
2019-05-20T03:42:38.801Z,12.6
2019-05-20T03:43:29.951Z,12.6
2019-05-20T03:44:20.825Z,12.6
2019-05-20T03:45:11.703Z,12.6
2019-05-20T03:46:02.594Z,12.6
2019-05-20T03:46:53.481Z,12.6
2019-05-20T03:47:44.629Z,12.6
2019-05-20T03:48:35.511Z,12.6
2019-05-20T03:49:26.398Z,12.6
2019-05-20T03:50:17.290Z,12.6
2019-05-20T03:51:08.174Z,12.6
2019-05-20T03:51:59.052Z,12.6
2019-05-20T03:52:50.002Z,12.7
2019-05-20T03:53:40.878Z,12.7
2019-05-20T03:54:32.019Z,12.7
2019-05-20T03:55:22.915Z,12.7
2019-05-20T03:56:13.800Z,12.7
2019-05-20T03:57:04.682Z,12.7
2019-05-20T03:57:55.805Z,12.8
2019-05-20T03:58:46.711Z,12.8
2019-05-20T03:59:37.581Z,12.8
2019-05-20T04:00:28.463Z,12.8
2019-05-20T04:01:19.329Z,12.8
2019-05-20T04:02:10.211Z,12.9
2019-05-20T04:03:01.091Z,12.8
2019-05-20T04:03:52.001Z,12.8
2019-05-20T04:04:51.910Z,12.9
2019-05-20T04:05:38.694Z,12.9
2019-05-20T04:06:29.849Z,12.9
2019-05-20T04:07:20.739Z,12.9
2019-05-20T04:08:11.633Z,12.9
2019-05-20T04:09:02.539Z,12.9
2019-05-20T04:09:53.432Z,12.9
2019-05-20T04:10:44.330Z,12.9
2019-05-20T04:11:35.231Z,13
2019-05-20T04:12:26.142Z,12.9
2019-05-20T04:13:17.017Z,13
2019-05-20T04:14:07.933Z,13
2019-05-20T04:14:58.829Z,13
2019-05-20T04:15:49.711Z,13
2019-05-20T04:16:40.639Z,13.1
2019-05-20T04:17:31.568Z,13.1
2019-05-20T04:18:22.451Z,13.1
2019-05-20T04:19:13.353Z,13.1
2019-05-20T04:20:04.232Z,13.1
2019-05-20T04:20:55.177Z,13.1
2019-05-20T04:21:46.059Z,13.1
2019-05-20T04:22:36.940Z,13.1
2019-05-20T04:23:27.813Z,13.1
2019-05-20T04:24:18.808Z,13.1
2019-05-20T04:25:09.971Z,13.2
2019-05-20T04:26:00.847Z,13.2
2019-05-20T04:26:51.727Z,13.2
2019-05-20T04:27:42.611Z,13.2
2019-05-20T04:28:33.484Z,13.1
2019-05-20T04:29:24.392Z,13.1
2019-05-20T04:30:18.818Z,13.1
2019-05-20T04:31:09.881Z,13.1
2019-05-20T04:32:00.753Z,13.1
2019-05-20T04:32:51.629Z,13.1
2019-05-20T04:33:42.525Z,13.1
2019-05-20T04:34:33.435Z,13.2
2019-05-20T04:35:24.471Z,13.3
2019-05-20T04:36:15.363Z,13.3
2019-05-20T04:37:06.249Z,13.3
2019-05-20T04:37:57.142Z,13.4
2019-05-20T04:38:48.028Z,13.4
2019-05-20T04:39:38.928Z,13.4
2019-05-20T04:40:29.804Z,13.4
2019-05-20T04:41:20.677Z,13.5
2019-05-20T04:42:11.550Z,13.5
2019-05-20T04:43:02.420Z,13.5
2019-05-20T04:43:53.294Z,13.5
2019-05-20T04:44:44.240Z,13.5
2019-05-20T04:45:35.254Z,13.5
2019-05-20T04:46:26.146Z,13.5
2019-05-20T04:47:17.028Z,13.5
2019-05-20T04:48:07.913Z,13.5
2019-05-20T04:48:58.778Z,13.5
2019-05-20T04:49:49.689Z,13.5
2019-05-20T04:50:40.567Z,13.5
2019-05-20T04:51:31.445Z,13.5
2019-05-20T04:52:22.362Z,13.5
2019-05-20T04:53:13.279Z,13.5
2019-05-20T04:54:04.177Z,13.5
2019-05-20T04:54:55.099Z,13.5
2019-05-20T04:55:45.981Z,13.5
2019-05-20T04:56:36.848Z,13.5
2019-05-20T04:57:27.732Z,13.5
2019-05-20T04:58:18.616Z,13.5
2019-05-20T04:59:09.577Z,13.5
2019-05-20T05:00:00.627Z,13.5
2019-05-20T05:00:51.521Z,13.5
2019-05-20T05:01:42.399Z,13.5
2019-05-20T05:02:33.296Z,13.5
2019-05-20T05:03:24.196Z,13.5
2019-05-20T05:04:15.083Z,13.5
2019-05-20T05:05:05.979Z,13.5
2019-05-20T05:05:57.041Z,13.5
2019-05-20T05:06:47.967Z,13.5
2019-05-20T05:07:38.850Z,13.5
2019-05-20T05:08:29.736Z,13.5
2019-05-20T05:09:20.610Z,13.5
2019-05-20T05:10:11.518Z,13.5
2019-05-20T05:11:02.390Z,13.5
2019-05-20T05:11:53.294Z,13.5
2019-05-20T05:12:44.180Z,13.5
2019-05-20T05:13:35.074Z,13.5
2019-05-20T05:14:25.985Z,13.5
2019-05-20T05:15:16.896Z,13.5
2019-05-20T05:16:07.811Z,13.5
2019-05-20T05:16:59.699Z,13.5
2019-05-20T05:17:50.574Z,13.5
2019-05-20T05:18:41.446Z,13.5
2019-05-20T05:19:32.314Z,13.5
2019-05-20T05:20:23.219Z,13.5
2019-05-20T05:21:14.162Z,13.5
2019-05-20T05:22:05.066Z,13.5
2019-05-20T05:22:55.938Z,13.5
2019-05-20T05:23:58.614Z,13.5
2019-05-20T05:24:42.615Z,13.5
2019-05-20T05:25:33.526Z,13.5
2019-05-20T05:26:24.415Z,13.5
2019-05-20T05:27:15.306Z,13.5
2019-05-20T05:28:06.186Z,13.5
2019-05-20T05:28:57.063Z,13.5
2019-05-20T05:29:47.936Z,13.5
2019-05-20T05:30:38.836Z,13.5
2019-05-20T05:31:29.732Z,13.5
2019-05-20T05:32:20.609Z,13.5
2019-05-20T05:33:11.483Z,13.5
2019-05-20T05:34:02.388Z,13.5
2019-05-20T05:34:53.264Z,13.5
2019-05-20T05:35:52.583Z,13.5
2019-05-20T05:36:39.984Z,13.6
2019-05-20T05:37:30.876Z,13.5
2019-05-20T05:38:21.754Z,13.5
2019-05-20T05:39:12.635Z,13.5
2019-05-20T05:40:07.394Z,13.5
2019-05-20T05:40:58.910Z,13.6
2019-05-20T05:41:49.798Z,13.6
2019-05-20T05:42:40.674Z,13.6
2019-05-20T05:43:31.563Z,13.5
2019-05-20T05:44:22.438Z,13.6
2019-05-20T05:45:13.322Z,13.5
2019-05-20T05:46:04.234Z,13.6
2019-05-20T05:46:55.117Z,13.6
2019-05-20T05:47:45.998Z,13.6
2019-05-20T05:48:36.876Z,13.6
2019-05-20T05:49:27.750Z,13.6
2019-05-20T05:50:18.620Z,13.6
2019-05-20T05:51:09.521Z,13.6
2019-05-20T05:52:00.392Z,13.6
2019-05-20T05:52:52.319Z,13.6
2019-05-20T05:53:43.240Z,13.6
2019-05-20T05:54:34.110Z,13.6
2019-05-20T05:55:24.992Z,13.6
2019-05-20T05:56:15.952Z,13.6
2019-05-20T05:57:06.845Z,13.6
2019-05-20T05:57:57.723Z,13.6
2019-05-20T05:58:48.601Z,13.6
2019-05-20T05:59:39.478Z,13.6
2019-05-20T06:00:30.355Z,13.6
2019-05-20T06:01:21.285Z,13.6
2019-05-20T06:02:12.426Z,13.6
2019-05-20T06:03:03.343Z,13.6
2019-05-20T06:03:54.249Z,13.6
2019-05-20T06:04:45.119Z,13.6
2019-05-20T06:05:36.241Z,13.6
2019-05-20T06:06:27.116Z,13.6
2019-05-20T06:07:18.020Z,13.6
2019-05-20T06:08:13.897Z,13.6
2019-05-20T06:09:04.782Z,13.6
2019-05-20T06:09:55.649Z,13.6
2019-05-20T06:10:46.537Z,13.6
2019-05-20T06:11:37.455Z,13.6
2019-05-20T06:12:28.335Z,13.6
2019-05-20T06:13:19.226Z,13.6
2019-05-20T06:14:10.105Z,13.6
2019-05-20T06:15:00.980Z,13.6
2019-05-20T06:15:54.573Z,13.6
2019-05-20T06:16:45.849Z,13.6
2019-05-20T06:17:36.721Z,13.6
2019-05-20T06:18:27.605Z,13.6
2019-05-20T06:19:18.484Z,13.6
2019-05-20T06:20:09.368Z,13.6
2019-05-20T06:21:00.271Z,13.6
2019-05-20T06:21:51.193Z,13.6
2019-05-20T06:22:42.075Z,13.6
2019-05-20T06:23:32.972Z,13.6
2019-05-20T06:24:23.871Z,13.6
2019-05-20T06:25:17.746Z,13.6
2019-05-20T06:26:08.637Z,13.6
2019-05-20T06:26:59.563Z,13.6
2019-05-20T06:27:50.438Z,13.6
2019-05-20T06:28:41.306Z,13.6
2019-05-20T06:29:32.180Z,13.6
2019-05-20T06:30:23.348Z,13.6
2019-05-20T06:31:14.231Z,13.6
2019-05-20T06:32:05.099Z,13.6
2019-05-20T06:32:56.006Z,13.7
2019-05-20T06:33:46.879Z,13.7
2019-05-20T06:34:41.687Z,13.7
2019-05-20T13:00:23.932Z,15.9
2019-05-20T13:01:15.166Z,15.9
2019-05-20T13:02:06.161Z,15.9
2019-05-20T13:03:00.622Z,15.9
2019-05-20T13:03:51.569Z,15.9
2019-05-20T13:37:32.829Z,15.9
2019-05-20T13:38:23.961Z,15.9
2019-05-20T13:39:14.865Z,15.9
2019-05-20T13:56:56.111Z,15.9
2019-05-20T13:57:47.036Z,15.9
2019-05-20T13:59:36.734Z,15.9
2019-05-20T14:00:27.715Z,15.9
2019-05-20T14:01:18.746Z,15.9
2019-05-20T14:02:10.727Z,15.9
2019-05-20T14:03:01.670Z,15.9
2019-05-20T14:03:52.605Z,15.9
2019-05-20T14:04:43.852Z,15.9
2019-05-20T14:05:34.784Z,15.9
2019-05-20T14:06:26.949Z,15.9
2019-05-20T14:07:17.900Z,15.9
2019-05-20T18:24:20.001Z,16.1
2019-05-20T18:25:10.874Z,16.1
2019-05-20T18:26:03.553Z,16.1
2019-05-20T18:26:54.611Z,16.1
2019-05-20T18:27:45.532Z,16.1
2019-05-20T18:28:36.406Z,16.1
2019-05-20T18:29:27.280Z,16.1
2019-05-20T18:30:18.164Z,16.1
2019-05-20T18:31:09.040Z,16.1
2019-05-20T18:31:59.922Z,16.1
2019-05-20T18:32:50.842Z,16.1
2019-05-20T18:33:42.836Z,16.1
2019-05-20T18:34:33.712Z,16.1
2019-05-20T18:35:24.585Z,16.1
2019-05-20T18:36:15.480Z,16.1
2019-05-20T18:37:06.349Z,16.1
2019-05-20T18:37:57.257Z,16.1
2019-05-20T18:38:49.507Z,16.1
2019-05-20T18:39:40.688Z,16.1
2019-05-20T18:40:31.821Z,16.1
2019-05-20T18:41:22.758Z,16.1
2019-05-20T18:42:13.631Z,16.1
2019-05-20T18:43:04.540Z,16.1
2019-05-20T18:43:55.424Z,16.1
2019-05-20T18:44:46.299Z,16.1
2019-05-20T18:45:37.171Z,16.1
2019-05-20T18:46:28.055Z,16.1
2019-05-20T18:47:18.935Z,16.1
2019-05-20T18:48:09.858Z,16.1
2019-05-20T18:49:00.737Z,16.1
2019-05-20T18:49:51.610Z,16.1
2019-05-20T18:50:42.487Z,16.1
2019-05-20T18:51:33.364Z,16.1
2019-05-20T18:52:24.234Z,16.1
2019-05-20T18:53:15.135Z,16.1
2019-05-20T18:54:06.000Z,16.1
2019-05-20T18:54:56.886Z,16.1
2019-05-20T18:55:47.776Z,16.1
2019-05-20T18:56:38.661Z,16.1
2019-05-20T18:57:29.798Z,16.1
2019-05-20T18:58:20.698Z,16.1
2019-05-20T18:59:11.754Z,16.1
2019-05-20T19:00:03.368Z,16.1
2019-05-20T19:00:54.519Z,16.1
2019-05-20T19:01:55.940Z,16.1
2019-05-20T19:02:41.214Z,16.1
2019-05-20T19:03:32.558Z,16.1
2019-05-20T19:04:23.918Z,16.1
2019-05-20T19:05:14.794Z,16.1
2019-05-20T19:06:05.664Z,16.1
2019-05-20T19:06:56.540Z,16.1
2019-05-20T19:07:47.451Z,16.1
2019-05-20T19:08:38.437Z,16.1
2019-05-20T19:09:29.307Z,16.1
2019-05-20T19:10:20.192Z,16.1
2019-05-20T19:11:11.069Z,16.1
2019-05-20T19:12:01.946Z,16.1
2019-05-20T19:12:52.814Z,16.1
2019-05-20T19:13:43.755Z,16.1
2019-05-20T19:14:34.668Z,16.1
2019-05-20T19:15:25.574Z,16.1
2019-05-20T19:16:16.441Z,16.1
2019-05-20T19:17:07.311Z,16.1
2019-05-20T19:17:58.190Z,16.1
2019-05-20T19:18:49.105Z,16.1
2019-05-20T19:19:39.970Z,16.1
2019-05-20T19:20:30.841Z,16.1
2019-05-20T19:21:21.774Z,16.1
2019-05-20T19:22:12.798Z,16.1
2019-05-20T19:23:03.670Z,16.1
2019-05-20T19:23:54.596Z,16.1
2019-05-20T19:24:45.489Z,16.1
2019-05-20T19:25:37.937Z,16.1
2019-05-20T19:26:29.015Z,16.1
2019-05-20T19:27:19.953Z,16.1
2019-05-20T19:28:10.891Z,16.1
2019-05-20T19:29:01.806Z,16.1
2019-05-20T19:29:52.691Z,16.1
2019-05-20T19:30:43.560Z,16.1
2019-05-20T19:31:34.469Z,16.1
2019-05-20T19:32:25.379Z,16.1
2019-05-20T19:33:16.252Z,16.1
2019-05-20T19:34:07.192Z,16.1
2019-05-20T19:34:58.080Z,16.1
2019-05-20T19:35:48.979Z,16.1
2019-05-20T19:36:39.852Z,16.1
2019-05-20T19:37:30.738Z,16.1
2019-05-20T19:38:21.673Z,16.1
2019-05-20T19:39:12.553Z,16.1
2019-05-20T19:40:03.465Z,16.1
2019-05-20T19:40:54.434Z,16.1
2019-05-20T19:41:45.326Z,16.1
2019-05-20T19:42:36.209Z,16.1
2019-05-20T19:43:27.094Z,16.1
2019-05-20T19:44:18.045Z,16.1
2019-05-20T19:45:08.960Z,16.1
2019-05-20T19:46:00.118Z,16.1
2019-05-20T19:46:50.986Z,16.1
2019-05-20T19:47:41.867Z,16.1
2019-05-20T19:48:32.780Z,16.1
2019-05-20T19:49:23.674Z,16.1
2019-05-20T19:50:14.542Z,16
2019-05-20T19:51:05.500Z,16.1
2019-05-20T19:51:56.392Z,16
2019-05-20T19:52:47.286Z,16
2019-05-20T19:53:38.164Z,16
2019-05-20T19:54:29.076Z,16
2019-05-20T19:55:19.968Z,16
2019-05-20T19:56:10.846Z,16
2019-05-20T19:57:01.715Z,16
2019-05-20T19:57:52.600Z,16
2019-05-20T19:58:43.488Z,16
2019-05-20T19:59:34.390Z,16
2019-05-20T20:00:25.261Z,15.9
2019-05-20T20:01:16.146Z,15.8
2019-05-20T20:02:16.687Z,15.8
2019-05-20T20:03:02.854Z,15.8
2019-05-20T20:03:53.740Z,15.7
2019-05-20T20:04:44.654Z,15.6
2019-05-20T20:05:35.568Z,15.6
2019-05-20T20:06:26.477Z,15.6
2019-05-20T20:07:17.368Z,15.6
2019-05-20T20:08:08.250Z,15.5
2019-05-20T20:08:59.140Z,15.5
2019-05-20T20:09:50.084Z,15.4
2019-05-20T20:10:40.999Z,15.4
2019-05-20T20:11:31.895Z,15.4
2019-05-20T20:12:22.779Z,15.3
2019-05-20T20:13:13.662Z,15.3
2019-05-20T20:14:04.582Z,15.4
2019-05-20T20:14:55.550Z,15.4
2019-05-20T20:15:46.415Z,15.4
2019-05-20T20:16:37.636Z,15.4
2019-05-20T20:17:28.607Z,15.5
2019-05-20T20:18:19.492Z,15.5
2019-05-20T20:19:10.796Z,15.5
2019-05-20T20:20:01.701Z,15.4
2019-05-20T20:20:52.583Z,15.4
2019-05-20T20:21:43.494Z,15.4
2019-05-20T20:22:34.435Z,15.3
2019-05-20T20:23:25.329Z,15.3
2019-05-20T20:24:16.205Z,15.3
2019-05-20T20:25:07.186Z,15.3
2019-05-20T20:25:58.086Z,15.2
2019-05-20T20:26:49.427Z,15.2
2019-05-20T20:27:40.297Z,15.2
2019-05-20T20:28:31.242Z,15.1
2019-05-20T20:29:22.187Z,15.2
2019-05-20T20:30:13.152Z,15.2
2019-05-20T20:31:04.024Z,15.2
2019-05-20T20:31:54.988Z,15.1
2019-05-20T20:32:46.011Z,15.1
2019-05-20T20:33:36.939Z,15.1
2019-05-20T20:34:30.525Z,15.1
2019-05-20T20:35:37.531Z,15.1
2019-05-20T20:36:22.365Z,15.1
2019-05-20T20:37:13.235Z,15.1
2019-05-20T20:38:04.132Z,15.1
2019-05-20T20:38:55.010Z,15.1
2019-05-20T20:39:45.881Z,15.1
2019-05-20T20:40:36.795Z,15.1
2019-05-20T20:41:27.691Z,15.1
2019-05-20T20:42:18.602Z,15.2
2019-05-20T20:43:09.469Z,15.2
2019-05-20T20:44:00.352Z,15.2
2019-05-20T20:44:51.225Z,15.2
2019-05-20T20:45:42.122Z,15.2
2019-05-20T20:46:33.029Z,15.2
2019-05-20T20:47:24.008Z,15.1
2019-05-20T20:48:14.880Z,15.1
2019-05-20T20:49:05.755Z,15.1
2019-05-20T20:49:56.642Z,15.1
2019-05-20T20:50:47.574Z,15.1
2019-05-20T20:51:38.462Z,15.1
2019-05-20T20:52:32.398Z,15.1
2019-05-20T20:53:23.378Z,15.1
2019-05-20T20:54:14.254Z,15
2019-05-20T20:55:05.128Z,15
2019-05-20T20:55:56.036Z,14.9
2019-05-20T20:56:46.911Z,14.9
2019-05-20T20:57:37.778Z,14.9
2019-05-20T20:58:28.651Z,14.9
2019-05-20T20:59:19.524Z,14.8
2019-05-20T21:00:10.499Z,14.8
2019-05-20T21:01:01.452Z,14.7
2019-05-20T21:01:55.375Z,14.7
2019-05-20T21:02:53.067Z,14.7
2019-05-20T21:03:43.959Z,14.7
2019-05-20T21:04:34.831Z,14.6
2019-05-20T21:05:25.702Z,14.6
2019-05-20T21:06:16.599Z,14.6
2019-05-20T21:07:07.492Z,14.6
2019-05-20T21:07:58.356Z,14.5
2019-05-20T21:08:49.228Z,14.5
2019-05-20T21:09:40.101Z,14.5
2019-05-20T21:10:30.970Z,14.5
2019-05-20T21:11:21.866Z,14.5
2019-05-20T21:12:12.740Z,14.5
2019-05-20T21:13:03.618Z,14.5
2019-05-20T21:13:54.487Z,14.5
2019-05-20T21:14:45.352Z,14.5
2019-05-20T21:15:36.216Z,14.5
2019-05-20T21:16:27.113Z,14.6
2019-05-20T21:17:17.982Z,14.5
2019-05-20T21:18:08.854Z,14.6
2019-05-20T21:18:59.724Z,14.6
2019-05-20T21:19:50.605Z,14.6
2019-05-20T21:20:41.475Z,14.6
2019-05-20T21:21:32.404Z,14.6
2019-05-20T21:22:23.282Z,14.6
2019-05-20T21:23:14.151Z,14.5
2019-05-20T21:24:05.021Z,14.5
2019-05-20T21:24:55.899Z,14.5
2019-05-20T21:25:46.769Z,14.5
2019-05-20T21:26:37.670Z,14.5
2019-05-20T21:27:28.543Z,14.5
2019-05-20T21:28:19.410Z,14.5
2019-05-20T21:29:10.291Z,14.5
2019-05-20T21:30:01.161Z,14.5
2019-05-20T21:30:52.032Z,14.4
2019-05-20T21:31:42.930Z,14.5
2019-05-20T21:32:33.801Z,14.5
2019-05-20T21:33:24.673Z,14.6
2019-05-20T21:34:15.549Z,14.6
2019-05-20T21:35:06.418Z,14.6
2019-05-20T21:35:57.292Z,14.6
2019-05-20T21:36:48.432Z,14.6
2019-05-20T21:37:39.371Z,14.5
2019-05-20T21:38:30.242Z,14.5
2019-05-20T21:39:21.117Z,14.5
2019-05-20T21:40:11.988Z,14.5
2019-05-20T21:41:02.866Z,14.5
2019-05-20T21:41:53.779Z,14.4
2019-05-20T21:42:44.660Z,14.4
2019-05-20T21:43:35.531Z,14.4
2019-05-20T21:44:26.400Z,14.4
2019-05-20T21:45:17.274Z,14.4
2019-05-20T21:46:08.149Z,14.4
2019-05-20T21:46:59.022Z,14.4
2019-05-20T21:47:49.919Z,14.4
2019-05-20T21:48:40.791Z,14.4
2019-05-20T21:49:31.676Z,14.4
2019-05-20T21:50:22.552Z,14.4
2019-05-20T21:51:13.416Z,14.4
2019-05-20T21:52:04.319Z,14.4
2019-05-20T21:52:55.189Z,14.4
2019-05-20T21:53:46.063Z,14.4
2019-05-20T21:54:36.932Z,14.4
2019-05-20T21:55:27.798Z,14.4
2019-05-20T21:56:18.671Z,14.4
2019-05-20T21:57:09.566Z,14.4
2019-05-20T21:58:00.436Z,14.4
2019-05-20T21:58:51.329Z,14.4
2019-05-20T21:59:42.244Z,14.3
2019-05-20T22:00:33.120Z,14.3
2019-05-20T22:01:24.237Z,14.3
2019-05-20T22:02:15.106Z,14.3
2019-05-20T22:03:06.024Z,14.3
2019-05-20T22:03:56.894Z,14.3
2019-05-20T22:04:47.764Z,14.3
2019-05-20T22:05:38.636Z,14.3
2019-05-20T22:06:29.507Z,14.3
2019-05-20T22:07:20.375Z,14.3
2019-05-20T22:08:11.283Z,14.3
2019-05-20T22:09:02.156Z,14.3
2019-05-20T22:09:53.051Z,14.3
2019-05-20T22:10:43.951Z,14.3
2019-05-20T22:11:34.818Z,14.3
2019-05-20T22:12:25.685Z,14.3
2019-05-20T22:13:16.606Z,14.3
2019-05-20T22:14:07.482Z,14.3
2019-05-20T22:14:58.410Z,14.3
2019-05-20T22:15:49.290Z,14.3
2019-05-20T22:16:40.162Z,14.3
2019-05-20T22:17:31.039Z,14.3
2019-05-20T22:18:21.955Z,14.2
2019-05-20T22:19:12.829Z,14.2
2019-05-20T22:20:03.702Z,14.2
2019-05-20T22:20:54.582Z,14.2
2019-05-20T22:21:45.449Z,14.2
2019-05-20T22:22:36.321Z,14.2
2019-05-20T22:23:27.227Z,14.2
2019-05-20T22:24:18.095Z,14.1
2019-05-20T22:25:08.964Z,14.1
2019-05-20T22:25:59.838Z,14.1
2019-05-20T22:26:50.710Z,14.1
2019-05-20T22:27:41.584Z,14.1
2019-05-20T22:28:32.492Z,14.1
2019-05-20T22:29:23.365Z,14.1
2019-05-20T22:30:14.243Z,14.1
2019-05-20T22:31:05.115Z,14.1
2019-05-20T22:31:55.986Z,14.1
2019-05-20T22:32:46.853Z,14.1
2019-05-20T22:33:41.190Z,14.1
2019-05-20T22:34:33.126Z,14.1
2019-05-20T22:35:23.999Z,14.1
2019-05-20T22:36:14.874Z,14.1
2019-05-20T22:37:05.748Z,14
2019-05-20T22:37:56.627Z,14
2019-05-20T22:38:47.540Z,14
2019-05-20T22:39:38.408Z,13.9
2019-05-20T22:40:29.277Z,13.9
2019-05-20T22:41:20.196Z,13.9
2019-05-20T22:42:11.080Z,13.9
2019-05-20T22:43:01.955Z,13.9
2019-05-20T22:43:52.864Z,13.9
2019-05-20T22:44:43.730Z,13.8
2019-05-20T22:45:34.616Z,13.8
2019-05-20T22:46:25.486Z,13.8
2019-05-20T22:47:16.356Z,13.8
2019-05-20T22:48:07.222Z,13.8
2019-05-20T22:48:58.136Z,13.8
2019-05-20T22:49:49.009Z,13.8
2019-05-20T22:50:39.882Z,13.8
2019-05-20T22:51:30.754Z,13.8
2019-05-20T22:52:21.625Z,13.8
2019-05-20T22:53:12.493Z,13.8
2019-05-20T22:54:03.448Z,13.7